Morgan Mill, Texas
Current Conditions -  °F | °C
As of 4:15 PM on Tuesday 25 Nov 2014 (Local Time) from KSEP Reporting Station
Clear Clear  
Wind Chill: 60°   Ceiling: Unl
Heat Index: 60°   Visibility: 10mi
Dew Point: 22°   Wind: 9mph
Humidity: 23%   Direction: 250°WSW
Pressure: 30.21"   Gusts: NA
Location:  32.39°N, 98.17°W
Report Text: KSEP 252215Z AUTO 25008KT 10SM CLR 16/M05 A3021 RMK AO2 T01561054
Loading
Personal Weather Stations






























Interactive Weather Map New forecast layout! Learn more

10-Day Weather Forecast

Advertisements
Track Severe Weather on mobile